sensor_id;sensor_type;location;lat;lon;timestamp;P1;durP1;ratioP1;P2;durP2;ratioP2
13672;SDS011;6909;52.202;9.876;2023-02-28T00:01:40;1.27;;;0.90;;
13672;SDS011;6909;52.202;9.876;2023-02-28T00:04:06;1.20;;;1.07;;
13672;SDS011;6909;52.202;9.876;2023-02-28T00:06:34;2.73;;;1.03;;
13672;SDS011;6909;52.202;9.876;2023-02-28T00:09:00;1.50;;;0.80;;
13672;SDS011;6909;52.202;9.876;2023-02-28T00:11:29;1.00;;;0.70;;
13672;SDS011;6909;52.202;9.876;2023-02-28T00:13:55;0.23;;;0.23;;
13672;SDS011;6909;52.202;9.876;2023-02-28T00:16:22;1.13;;;0.30;;
13672;SDS011;6909;52.202;9.876;2023-02-28T00:18:49;1.23;;;0.50;;
13672;SDS011;6909;52.202;9.876;2023-02-28T00:21:17;0.50;;;0.50;;
13672;SDS011;6909;52.202;9.876;2023-02-28T00:23:45;1.13;;;0.90;;
13672;SDS011;6909;52.202;9.876;2023-02-28T00:26:11;1.90;;;0.87;;
13672;SDS011;6909;52.202;9.876;2023-02-28T00:28:40;0.60;;;0.60;;
13672;SDS011;6909;52.202;9.876;2023-02-28T00:31:06;1.27;;;0.67;;
13672;SDS011;6909;52.202;9.876;2023-02-28T00:33:33;1.00;;;0.63;;
13672;SDS011;6909;52.202;9.876;2023-02-28T00:36:03;2.70;;;1.20;;
13672;SDS011;6909;52.202;9.876;2023-02-28T00:38:31;2.80;;;1.37;;
13672;SDS011;6909;52.202;9.876;2023-02-28T00:40:58;2.17;;;1.67;;
13672;SDS011;6909;52.202;9.876;2023-02-28T00:43:29;1.10;;;0.70;;
13672;SDS011;6909;52.202;9.876;2023-02-28T00:45:57;0.77;;;0.77;;
13672;SDS011;6909;52.202;9.876;2023-02-28T00:48:24;0.67;;;0.67;;
13672;SDS011;6909;52.202;9.876;2023-02-28T00:50:51;0.57;;;0.30;;
13672;SDS011;6909;52.202;9.876;2023-02-28T00:53:18;1.37;;;0.70;;
13672;SDS011;6909;52.202;9.876;2023-02-28T00:55:44;2.30;;;0.40;;
13672;SDS011;6909;52.202;9.876;2023-02-28T00:58:11;3.00;;;1.13;;
13672;SDS011;6909;52.202;9.876;2023-02-28T01:00:37;2.10;;;0.83;;
13672;SDS011;6909;52.202;9.876;2023-02-28T01:03:05;4.67;;;0.70;;
13672;SDS011;6909;52.202;9.876;2023-02-28T01:05:32;0.70;;;0.27;;
13672;SDS011;6909;52.202;9.876;2023-02-28T01:07:59;1.67;;;0.70;;
13672;SDS011;6909;52.202;9.876;2023-02-28T01:10:25;2.73;;;1.33;;
13672;SDS011;6909;52.202;9.876;2023-02-28T01:12:56;1.47;;;0.60;;
13672;SDS011;6909;52.202;9.876;2023-02-28T01:15:23;0.60;;;0.60;;
13672;SDS011;6909;52.202;9.876;2023-02-28T01:17:49;4.30;;;0.80;;
13672;SDS011;6909;52.202;9.876;2023-02-28T01:20:17;1.17;;;0.60;;
13672;SDS011;6909;52.202;9.876;2023-02-28T01:22:44;0.20;;;0.20;;
13672;SDS011;6909;52.202;9.876;2023-02-28T01:25:14;2.87;;;1.13;;
13672;SDS011;6909;52.202;9.876;2023-02-28T01:27:40;0.93;;;0.60;;
13672;SDS011;6909;52.202;9.876;2023-02-28T01:30:08;0.60;;;0.60;;
13672;SDS011;6909;52.202;9.876;2023-02-28T01:32:35;0.70;;;0.70;;
13672;SDS011;6909;52.202;9.876;2023-02-28T01:35:02;0.40;;;0.37;;
13672;SDS011;6909;52.202;9.876;2023-02-28T01:37:30;1.47;;;0.90;;
13672;SDS011;6909;52.202;9.876;2023-02-28T01:39:57;0.53;;;0.53;;
13672;SDS011;6909;52.202;9.876;2023-02-28T01:42:24;0.37;;;0.37;;
13672;SDS011;6909;52.202;9.876;2023-02-28T01:44:55;0.40;;;0.40;;
13672;SDS011;6909;52.202;9.876;2023-02-28T01:47:28;1.50;;;1.00;;
13672;SDS011;6909;52.202;9.876;2023-02-28T01:49:59;0.57;;;0.57;;
13672;SDS011;6909;52.202;9.876;2023-02-28T01:52:27;0.33;;;0.33;;
13672;SDS011;6909;52.202;9.876;2023-02-28T01:54:56;1.60;;;1.50;;
13672;SDS011;6909;52.202;9.876;2023-02-28T01:57:27;0.60;;;0.47;;
13672;SDS011;6909;52.202;9.876;2023-02-28T02:00:06;2.67;;;1.20;;
13672;SDS011;6909;52.202;9.876;2023-02-28T02:02:35;0.80;;;0.80;;
13672;SDS011;6909;52.202;9.876;2023-02-28T02:05:04;0.40;;;0.40;;
13672;SDS011;6909;52.202;9.876;2023-02-28T02:07:32;0.93;;;0.90;;
13672;SDS011;6909;52.202;9.876;2023-02-28T02:10:04;0.73;;;0.73;;
13672;SDS011;6909;52.202;9.876;2023-02-28T02:12:50;0.80;;;0.73;;
13672;SDS011;6909;52.202;9.876;2023-02-28T02:15:32;0.90;;;0.90;;
13672;SDS011;6909;52.202;9.876;2023-02-28T02:18:04;1.37;;;1.10;;
13672;SDS011;6909;52.202;9.876;2023-02-28T02:20:47;0.30;;;0.30;;
13672;SDS011;6909;52.202;9.876;2023-02-28T02:23:56;1.23;;;1.03;;
13672;SDS011;6909;52.202;9.876;2023-02-28T02:26:49;0.83;;;0.73;;
13672;SDS011;6909;52.202;9.876;2023-02-28T02:29:47;2.10;;;1.07;;
13672;SDS011;6909;52.202;9.876;2023-02-28T02:32:35;0.40;;;0.40;;
13672;SDS011;6909;52.202;9.876;2023-02-28T02:35:22;4.10;;;1.40;;
13672;SDS011;6909;52.202;9.876;2023-02-28T02:37:55;0.90;;;0.77;;
13672;SDS011;6909;52.202;9.876;2023-02-28T02:40:32;0.97;;;0.90;;
13672;SDS011;6909;52.202;9.876;2023-02-28T02:43:05;0.97;;;0.60;;
13672;SDS011;6909;52.202;9.876;2023-02-28T02:45:36;1.10;;;0.83;;
13672;SDS011;6909;52.202;9.876;2023-02-28T02:48:07;1.07;;;0.93;;
13672;SDS011;6909;52.202;9.876;2023-02-28T02:50:41;0.23;;;0.23;;
13672;SDS011;6909;52.202;9.876;2023-02-28T02:53:10;1.70;;;0.60;;
13672;SDS011;6909;52.202;9.876;2023-02-28T02:55:40;1.10;;;0.87;;
13672;SDS011;6909;52.202;9.876;2023-02-28T02:58:10;1.37;;;1.27;;
13672;SDS011;6909;52.202;9.876;2023-02-28T03:00:41;1.07;;;0.80;;
13672;SDS011;6909;52.202;9.876;2023-02-28T03:03:11;0.80;;;0.77;;
13672;SDS011;6909;52.202;9.876;2023-02-28T03:05:42;0.30;;;0.30;;
13672;SDS011;6909;52.202;9.876;2023-02-28T03:08:12;1.40;;;0.63;;
13672;SDS011;6909;52.202;9.876;2023-02-28T03:10:40;0.43;;;0.43;;
13672;SDS011;6909;52.202;9.876;2023-02-28T03:13:29;0.60;;;0.60;;
13672;SDS011;6909;52.202;9.876;2023-02-28T03:16:35;2.33;;;0.83;;
13672;SDS011;6909;52.202;9.876;2023-02-28T03:22:08;0.60;;;0.43;;
13672;SDS011;6909;52.202;9.876;2023-02-28T03:24:54;0.40;;;0.40;;
13672;SDS011;6909;52.202;9.876;2023-02-28T03:27:27;0.97;;;0.90;;
13672;SDS011;6909;52.202;9.876;2023-02-28T03:29:58;1.40;;;0.80;;
13672;SDS011;6909;52.202;9.876;2023-02-28T03:32:28;2.00;;;0.60;;
13672;SDS011;6909;52.202;9.876;2023-02-28T03:35:00;2.20;;;1.27;;
13672;SDS011;6909;52.202;9.876;2023-02-28T03:37:33;1.03;;;0.93;;
13672;SDS011;6909;52.202;9.876;2023-02-28T03:40:03;0.87;;;0.57;;
13672;SDS011;6909;52.202;9.876;2023-02-28T03:42:36;0.80;;;0.70;;
13672;SDS011;6909;52.202;9.876;2023-02-28T03:45:09;0.73;;;0.73;;
13672;SDS011;6909;52.202;9.876;2023-02-28T03:47:39;1.03;;;0.67;;
13672;SDS011;6909;52.202;9.876;2023-02-28T03:50:10;3.90;;;0.93;;
13672;SDS011;6909;52.202;9.876;2023-02-28T03:52:42;0.77;;;0.77;;
13672;SDS011;6909;52.202;9.876;2023-02-28T03:55:13;2.07;;;0.60;;
13672;SDS011;6909;52.202;9.876;2023-02-28T03:57:43;1.13;;;0.87;;
13672;SDS011;6909;52.202;9.876;2023-02-28T04:00:17;1.00;;;0.80;;
13672;SDS011;6909;52.202;9.876;2023-02-28T04:02:47;3.90;;;1.03;;
13672;SDS011;6909;52.202;9.876;2023-02-28T04:05:17;1.33;;;1.23;;
13672;SDS011;6909;52.202;9.876;2023-02-28T04:07:45;1.90;;;1.27;;
13672;SDS011;6909;52.202;9.876;2023-02-28T04:10:13;0.60;;;0.60;;
13672;SDS011;6909;52.202;9.876;2023-02-28T04:12:41;2.73;;;0.60;;
13672;SDS011;6909;52.202;9.876;2023-02-28T04:15:08;1.23;;;0.83;;
13672;SDS011;6909;52.202;9.876;2023-02-28T04:17:35;1.60;;;1.30;;
13672;SDS011;6909;52.202;9.876;2023-02-28T04:20:02;0.50;;;0.50;;
13672;SDS011;6909;52.202;9.876;2023-02-28T04:22:34;1.43;;;0.93;;
13672;SDS011;6909;52.202;9.876;2023-02-28T04:25:03;0.97;;;0.87;;
13672;SDS011;6909;52.202;9.876;2023-02-28T04:27:30;0.80;;;0.80;;
13672;SDS011;6909;52.202;9.876;2023-02-28T04:29:57;2.47;;;1.07;;
13672;SDS011;6909;52.202;9.876;2023-02-28T04:32:23;1.00;;;0.90;;
13672;SDS011;6909;52.202;9.876;2023-02-28T04:34:50;0.73;;;0.73;;
13672;SDS011;6909;52.202;9.876;2023-02-28T04:37:16;1.87;;;1.07;;
13672;SDS011;6909;52.202;9.876;2023-02-28T04:39:43;6.87;;;1.30;;
13672;SDS011;6909;52.202;9.876;2023-02-28T04:42:11;1.03;;;1.00;;
13672;SDS011;6909;52.202;9.876;2023-02-28T04:44:38;2.63;;;1.17;;
13672;SDS011;6909;52.202;9.876;2023-02-28T04:47:05;1.90;;;1.13;;
13672;SDS011;6909;52.202;9.876;2023-02-28T04:49:32;1.13;;;1.03;;
13672;SDS011;6909;52.202;9.876;2023-02-28T04:51:59;1.53;;;0.80;;
13672;SDS011;6909;52.202;9.876;2023-02-28T04:54:26;7.20;;;1.43;;
13672;SDS011;6909;52.202;9.876;2023-02-28T04:56:53;1.07;;;0.97;;
13672;SDS011;6909;52.202;9.876;2023-02-28T04:59:21;1.30;;;0.93;;
13672;SDS011;6909;52.202;9.876;2023-02-28T05:01:48;0.80;;;0.80;;
13672;SDS011;6909;52.202;9.876;2023-02-28T05:04:15;2.10;;;1.20;;
13672;SDS011;6909;52.202;9.876;2023-02-28T05:06:43;1.10;;;1.10;;
13672;SDS011;6909;52.202;9.876;2023-02-28T05:09:09;0.90;;;0.73;;
13672;SDS011;6909;52.202;9.876;2023-02-28T05:11:37;3.67;;;1.67;;
13672;SDS011;6909;52.202;9.876;2023-02-28T05:14:05;1.20;;;1.10;;
13672;SDS011;6909;52.202;9.876;2023-02-28T05:16:34;1.57;;;1.33;;
13672;SDS011;6909;52.202;9.876;2023-02-28T05:19:01;2.13;;;1.10;;
13672;SDS011;6909;52.202;9.876;2023-02-28T05:21:28;1.23;;;1.13;;
13672;SDS011;6909;52.202;9.876;2023-02-28T05:23:57;5.37;;;1.60;;
13672;SDS011;6909;52.202;9.876;2023-02-28T05:26:25;1.17;;;1.07;;
13672;SDS011;6909;52.202;9.876;2023-02-28T05:28:52;1.20;;;1.10;;
13672;SDS011;6909;52.202;9.876;2023-02-28T05:31:19;1.97;;;1.77;;
13672;SDS011;6909;52.202;9.876;2023-02-28T05:33:47;1.77;;;1.67;;
13672;SDS011;6909;52.202;9.876;2023-02-28T05:36:13;1.73;;;1.10;;
13672;SDS011;6909;52.202;9.876;2023-02-28T05:38:40;2.20;;;1.50;;
13672;SDS011;6909;52.202;9.876;2023-02-28T05:41:07;4.30;;;2.33;;
13672;SDS011;6909;52.202;9.876;2023-02-28T05:43:34;0.60;;;0.60;;
13672;SDS011;6909;52.202;9.876;2023-02-28T05:46:02;0.97;;;0.97;;
13672;SDS011;6909;52.202;9.876;2023-02-28T05:48:30;0.90;;;0.80;;
13672;SDS011;6909;52.202;9.876;2023-02-28T05:50:58;4.43;;;1.00;;
13672;SDS011;6909;52.202;9.876;2023-02-28T05:53:25;2.73;;;1.63;;
13672;SDS011;6909;52.202;9.876;2023-02-28T05:55:51;1.13;;;1.00;;
13672;SDS011;6909;52.202;9.876;2023-02-28T05:58:18;1.17;;;1.07;;
13672;SDS011;6909;52.202;9.876;2023-02-28T06:00:45;2.37;;;0.90;;
13672;SDS011;6909;52.202;9.876;2023-02-28T06:03:11;1.93;;;1.10;;
13672;SDS011;6909;52.202;9.876;2023-02-28T06:05:38;0.80;;;0.77;;
13672;SDS011;6909;52.202;9.876;2023-02-28T06:08:06;0.90;;;0.57;;
13672;SDS011;6909;52.202;9.876;2023-02-28T06:10:33;1.87;;;1.20;;
13672;SDS011;6909;52.202;9.876;2023-02-28T06:13:00;0.77;;;0.73;;
13672;SDS011;6909;52.202;9.876;2023-02-28T06:15:27;1.70;;;1.30;;
13672;SDS011;6909;52.202;9.876;2023-02-28T06:17:54;1.27;;;1.17;;
13672;SDS011;6909;52.202;9.876;2023-02-28T06:20:21;4.37;;;1.33;;
13672;SDS011;6909;52.202;9.876;2023-02-28T06:22:49;2.53;;;1.10;;
13672;SDS011;6909;52.202;9.876;2023-02-28T06:25:17;1.33;;;1.23;;
13672;SDS011;6909;52.202;9.876;2023-02-28T06:27:44;3.17;;;1.57;;
13672;SDS011;6909;52.202;9.876;2023-02-28T06:30:11;1.63;;;0.93;;
13672;SDS011;6909;52.202;9.876;2023-02-28T06:32:38;2.57;;;1.53;;
13672;SDS011;6909;52.202;9.876;2023-02-28T06:35:05;0.70;;;0.63;;
13672;SDS011;6909;52.202;9.876;2023-02-28T06:37:32;3.97;;;2.10;;
13672;SDS011;6909;52.202;9.876;2023-02-28T06:40:01;0.50;;;0.50;;
13672;SDS011;6909;52.202;9.876;2023-02-28T06:42:29;4.00;;;1.33;;
13672;SDS011;6909;52.202;9.876;2023-02-28T06:44:56;2.50;;;0.53;;
13672;SDS011;6909;52.202;9.876;2023-02-28T06:47:23;0.83;;;0.60;;
13672;SDS011;6909;52.202;9.876;2023-02-28T06:49:50;0.87;;;0.60;;
13672;SDS011;6909;52.202;9.876;2023-02-28T06:52:16;1.10;;;1.00;;
13672;SDS011;6909;52.202;9.876;2023-02-28T06:54:43;1.07;;;0.97;;
13672;SDS011;6909;52.202;9.876;2023-02-28T06:57:10;1.90;;;1.10;;
13672;SDS011;6909;52.202;9.876;2023-02-28T06:59:37;3.93;;;2.13;;
13672;SDS011;6909;52.202;9.876;2023-02-28T07:02:04;2.20;;;1.43;;
13672;SDS011;6909;52.202;9.876;2023-02-28T07:04:32;1.50;;;1.20;;
13672;SDS011;6909;52.202;9.876;2023-02-28T07:06:58;2.87;;;0.90;;
13672;SDS011;6909;52.202;9.876;2023-02-28T07:09:25;2.17;;;1.93;;
13672;SDS011;6909;52.202;9.876;2023-02-28T07:11:55;2.10;;;1.43;;
13672;SDS011;6909;52.202;9.876;2023-02-28T07:14:21;4.20;;;1.97;;
13672;SDS011;6909;52.202;9.876;2023-02-28T07:16:49;4.50;;;1.70;;
13672;SDS011;6909;52.202;9.876;2023-02-28T07:19:16;2.10;;;1.90;;
13672;SDS011;6909;52.202;9.876;2023-02-28T07:21:42;3.07;;;1.70;;
13672;SDS011;6909;52.202;9.876;2023-02-28T07:24:10;2.73;;;1.90;;
13672;SDS011;6909;52.202;9.876;2023-02-28T07:26:36;5.50;;;3.17;;
13672;SDS011;6909;52.202;9.876;2023-02-28T07:29:03;4.73;;;3.13;;
13672;SDS011;6909;52.202;9.876;2023-02-28T07:31:30;4.17;;;2.90;;
13672;SDS011;6909;52.202;9.876;2023-02-28T07:34:00;3.13;;;2.60;;
13672;SDS011;6909;52.202;9.876;2023-02-28T07:36:28;3.60;;;2.27;;
13672;SDS011;6909;52.202;9.876;2023-02-28T07:38:54;2.93;;;2.57;;
13672;SDS011;6909;52.202;9.876;2023-02-28T07:41:21;2.67;;;2.03;;
13672;SDS011;6909;52.202;9.876;2023-02-28T07:43:52;2.30;;;1.80;;
13672;SDS011;6909;52.202;9.876;2023-02-28T07:46:19;2.63;;;1.90;;
13672;SDS011;6909;52.202;9.876;2023-02-28T07:48:46;5.20;;;3.00;;
13672;SDS011;6909;52.202;9.876;2023-02-28T07:51:14;4.73;;;2.03;;
13672;SDS011;6909;52.202;9.876;2023-02-28T07:53:40;2.53;;;2.00;;
13672;SDS011;6909;52.202;9.876;2023-02-28T07:56:07;3.90;;;2.27;;
13672;SDS011;6909;52.202;9.876;2023-02-28T07:58:35;3.73;;;2.33;;
13672;SDS011;6909;52.202;9.876;2023-02-28T08:01:05;2.80;;;2.37;;
13672;SDS011;6909;52.202;9.876;2023-02-28T08:03:32;2.43;;;1.70;;
13672;SDS011;6909;52.202;9.876;2023-02-28T08:06:00;2.93;;;1.90;;
13672;SDS011;6909;52.202;9.876;2023-02-28T08:08:28;2.23;;;1.80;;
13672;SDS011;6909;52.202;9.876;2023-02-28T08:10:57;3.33;;;2.47;;
13672;SDS011;6909;52.202;9.876;2023-02-28T08:13:25;3.57;;;2.03;;
13672;SDS011;6909;52.202;9.876;2023-02-28T08:15:52;2.87;;;2.00;;
13672;SDS011;6909;52.202;9.876;2023-02-28T08:18:19;2.60;;;2.33;;
13672;SDS011;6909;52.202;9.876;2023-02-28T08:20:45;4.37;;;2.87;;
13672;SDS011;6909;52.202;9.876;2023-02-28T08:23:12;3.53;;;2.30;;
13672;SDS011;6909;52.202;9.876;2023-02-28T08:25:40;2.37;;;1.97;;
13672;SDS011;6909;52.202;9.876;2023-02-28T08:28:07;2.30;;;2.10;;
13672;SDS011;6909;52.202;9.876;2023-02-28T08:30:33;2.33;;;1.93;;
13672;SDS011;6909;52.202;9.876;2023-02-28T08:33:00;3.03;;;1.87;;
13672;SDS011;6909;52.202;9.876;2023-02-28T08:35:27;3.17;;;2.53;;
13672;SDS011;6909;52.202;9.876;2023-02-28T08:37:54;3.13;;;2.00;;
13672;SDS011;6909;52.202;9.876;2023-02-28T08:40:20;3.30;;;2.30;;
13672;SDS011;6909;52.202;9.876;2023-02-28T08:42:48;1.90;;;1.37;;
13672;SDS011;6909;52.202;9.876;2023-02-28T08:45:15;3.80;;;1.70;;
13672;SDS011;6909;52.202;9.876;2023-02-28T08:47:42;2.97;;;1.57;;
13672;SDS011;6909;52.202;9.876;2023-02-28T08:50:09;2.07;;;1.47;;
13672;SDS011;6909;52.202;9.876;2023-02-28T08:52:36;1.70;;;1.57;;
13672;SDS011;6909;52.202;9.876;2023-02-28T08:55:03;4.13;;;1.40;;
13672;SDS011;6909;52.202;9.876;2023-02-28T08:57:30;1.37;;;1.23;;
13672;SDS011;6909;52.202;9.876;2023-02-28T08:59:59;3.53;;;1.77;;
13672;SDS011;6909;52.202;9.876;2023-02-28T09:02:26;2.50;;;1.40;;
13672;SDS011;6909;52.202;9.876;2023-02-28T09:04:53;2.00;;;1.37;;
13672;SDS011;6909;52.202;9.876;2023-02-28T09:07:20;1.80;;;1.10;;
13672;SDS011;6909;52.202;9.876;2023-02-28T09:09:46;2.23;;;1.33;;
13672;SDS011;6909;52.202;9.876;2023-02-28T09:12:23;1.77;;;1.13;;
13672;SDS011;6909;52.202;9.876;2023-02-28T09:14:50;4.17;;;1.37;;
13672;SDS011;6909;52.202;9.876;2023-02-28T09:17:19;1.00;;;1.00;;
13672;SDS011;6909;52.202;9.876;2023-02-28T09:19:47;0.53;;;0.50;;
13672;SDS011;6909;52.202;9.876;2023-02-28T09:22:14;1.87;;;0.80;;
13672;SDS011;6909;52.202;9.876;2023-02-28T09:24:41;1.90;;;1.27;;
13672;SDS011;6909;52.202;9.876;2023-02-28T09:27:09;1.50;;;1.13;;
13672;SDS011;6909;52.202;9.876;2023-02-28T09:29:36;1.87;;;1.27;;
13672;SDS011;6909;52.202;9.876;2023-02-28T09:32:03;1.93;;;0.97;;
13672;SDS011;6909;52.202;9.876;2023-02-28T09:34:32;0.73;;;0.73;;
13672;SDS011;6909;52.202;9.876;2023-02-28T09:36:59;2.27;;;1.10;;
13672;SDS011;6909;52.202;9.876;2023-02-28T09:39:25;0.50;;;0.50;;
13672;SDS011;6909;52.202;9.876;2023-02-28T09:41:54;1.13;;;0.83;;
13672;SDS011;6909;52.202;9.876;2023-02-28T09:44:23;2.00;;;0.67;;
13672;SDS011;6909;52.202;9.876;2023-02-28T09:46:55;0.43;;;0.40;;
13672;SDS011;6909;52.202;9.876;2023-02-28T09:49:26;0.70;;;0.67;;
13672;SDS011;6909;52.202;9.876;2023-02-28T09:52:01;1.30;;;0.90;;
13672;SDS011;6909;52.202;9.876;2023-02-28T09:54:30;4.83;;;0.57;;
13672;SDS011;6909;52.202;9.876;2023-02-28T09:56:59;3.00;;;0.90;;
13672;SDS011;6909;52.202;9.876;2023-02-28T09:59:34;0.90;;;0.90;;
13672;SDS011;6909;52.202;9.876;2023-02-28T10:02:15;0.77;;;0.63;;
13672;SDS011;6909;52.202;9.876;2023-02-28T10:05:00;1.13;;;0.63;;
13672;SDS011;6909;52.202;9.876;2023-02-28T10:07:37;0.90;;;0.50;;
13672;SDS011;6909;52.202;9.876;2023-02-28T10:10:20;2.47;;;0.90;;
13672;SDS011;6909;52.202;9.876;2023-02-28T10:12:51;0.80;;;0.80;;
13672;SDS011;6909;52.202;9.876;2023-02-28T10:15:21;1.60;;;0.73;;
13672;SDS011;6909;52.202;9.876;2023-02-28T10:17:51;1.43;;;0.70;;
13672;SDS011;6909;52.202;9.876;2023-02-28T10:20:24;1.07;;;0.77;;
13672;SDS011;6909;52.202;9.876;2023-02-28T10:22:57;0.50;;;0.50;;
13672;SDS011;6909;52.202;9.876;2023-02-28T10:25:32;3.30;;;0.60;;
13672;SDS011;6909;52.202;9.876;2023-02-28T10:28:01;3.63;;;0.70;;
13672;SDS011;6909;52.202;9.876;2023-02-28T10:30:36;0.60;;;0.60;;
13672;SDS011;6909;52.202;9.876;2023-02-28T10:33:05;1.97;;;0.70;;
13672;SDS011;6909;52.202;9.876;2023-02-28T10:35:42;3.03;;;0.80;;
13672;SDS011;6909;52.202;9.876;2023-02-28T10:38:11;0.60;;;0.57;;
13672;SDS011;6909;52.202;9.876;2023-02-28T10:40:42;0.70;;;0.70;;
13672;SDS011;6909;52.202;9.876;2023-02-28T10:43:17;0.93;;;0.90;;
13672;SDS011;6909;52.202;9.876;2023-02-28T10:45:52;1.20;;;0.90;;
13672;SDS011;6909;52.202;9.876;2023-02-28T10:48:34;3.83;;;0.77;;
13672;SDS011;6909;52.202;9.876;2023-02-28T10:51:05;1.00;;;0.90;;
13672;SDS011;6909;52.202;9.876;2023-02-28T10:53:35;0.80;;;0.80;;
13672;SDS011;6909;52.202;9.876;2023-02-28T10:56:06;1.20;;;1.00;;
13672;SDS011;6909;52.202;9.876;2023-02-28T10:58:51;0.87;;;0.87;;
13672;SDS011;6909;52.202;9.876;2023-02-28T11:01:21;1.23;;;1.13;;
13672;SDS011;6909;52.202;9.876;2023-02-28T11:03:48;0.60;;;0.60;;
13672;SDS011;6909;52.202;9.876;2023-02-28T11:06:18;1.50;;;0.70;;
13672;SDS011;6909;52.202;9.876;2023-02-28T11:08:48;0.60;;;0.60;;
13672;SDS011;6909;52.202;9.876;2023-02-28T11:11:17;0.80;;;0.67;;
13672;SDS011;6909;52.202;9.876;2023-02-28T11:13:46;0.63;;;0.63;;
13672;SDS011;6909;52.202;9.876;2023-02-28T11:16:16;1.40;;;0.93;;
13672;SDS011;6909;52.202;9.876;2023-02-28T11:18:44;1.00;;;0.73;;
13672;SDS011;6909;52.202;9.876;2023-02-28T11:21:23;1.03;;;0.63;;
13672;SDS011;6909;52.202;9.876;2023-02-28T11:23:52;2.83;;;1.53;;
13672;SDS011;6909;52.202;9.876;2023-02-28T11:26:36;1.37;;;0.83;;
13672;SDS011;6909;52.202;9.876;2023-02-28T11:29:09;1.47;;;0.90;;
13672;SDS011;6909;52.202;9.876;2023-02-28T11:31:38;1.70;;;0.83;;
13672;SDS011;6909;52.202;9.876;2023-02-28T11:36:50;1.43;;;0.77;;
13672;SDS011;6909;52.202;9.876;2023-02-28T11:39:19;1.47;;;0.87;;
13672;SDS011;6909;52.202;9.876;2023-02-28T11:41:51;2.53;;;0.90;;
13672;SDS011;6909;52.202;9.876;2023-02-28T11:44:44;1.50;;;1.00;;
13672;SDS011;6909;52.202;9.876;2023-02-28T11:47:21;2.00;;;0.93;;
13672;SDS011;6909;52.202;9.876;2023-02-28T11:50:04;1.20;;;0.87;;
13672;SDS011;6909;52.202;9.876;2023-02-28T11:52:45;1.00;;;0.77;;
13672;SDS011;6909;52.202;9.876;2023-02-28T11:55:17;1.00;;;0.80;;
13672;SDS011;6909;52.202;9.876;2023-02-28T11:57:52;0.80;;;0.77;;
13672;SDS011;6909;52.202;9.876;2023-02-28T12:00:33;1.33;;;0.70;;
13672;SDS011;6909;52.202;9.876;2023-02-28T12:03:10;1.33;;;0.77;;
13672;SDS011;6909;52.202;9.876;2023-02-28T12:05:44;0.83;;;0.70;;
13672;SDS011;6909;52.202;9.876;2023-02-28T12:08:20;0.50;;;0.50;;
13672;SDS011;6909;52.202;9.876;2023-02-28T12:10:57;1.50;;;0.90;;
13672;SDS011;6909;52.202;9.876;2023-02-28T12:13:34;0.80;;;0.80;;
13672;SDS011;6909;52.202;9.876;2023-02-28T12:16:26;1.30;;;0.73;;
13672;SDS011;6909;52.202;9.876;2023-02-28T12:19:06;0.63;;;0.60;;
13672;SDS011;6909;52.202;9.876;2023-02-28T12:21:48;1.63;;;1.17;;
13672;SDS011;6909;52.202;9.876;2023-02-28T12:24:55;1.07;;;0.90;;
13672;SDS011;6909;52.202;9.876;2023-02-28T12:27:40;0.50;;;0.50;;
13672;SDS011;6909;52.202;9.876;2023-02-28T12:30:13;0.87;;;0.60;;
13672;SDS011;6909;52.202;9.876;2023-02-28T12:32:44;1.73;;;0.53;;
13672;SDS011;6909;52.202;9.876;2023-02-28T12:35:14;0.80;;;0.80;;
13672;SDS011;6909;52.202;9.876;2023-02-28T12:37:46;0.93;;;0.83;;
13672;SDS011;6909;52.202;9.876;2023-02-28T12:40:18;1.63;;;0.40;;
13672;SDS011;6909;52.202;9.876;2023-02-28T12:42:48;0.53;;;0.53;;
13672;SDS011;6909;52.202;9.876;2023-02-28T12:45:19;0.63;;;0.63;;
13672;SDS011;6909;52.202;9.876;2023-02-28T12:47:50;1.13;;;1.03;;
13672;SDS011;6909;52.202;9.876;2023-02-28T12:50:22;3.70;;;1.00;;
13672;SDS011;6909;52.202;9.876;2023-02-28T12:52:52;0.50;;;0.50;;
13672;SDS011;6909;52.202;9.876;2023-02-28T12:55:26;0.60;;;0.60;;
13672;SDS011;6909;52.202;9.876;2023-02-28T12:57:58;1.03;;;0.40;;
13672;SDS011;6909;52.202;9.876;2023-02-28T13:00:33;0.93;;;0.60;;
13672;SDS011;6909;52.202;9.876;2023-02-28T13:03:15;0.60;;;0.50;;
13672;SDS011;6909;52.202;9.876;2023-02-28T13:06:05;0.63;;;0.63;;
13672;SDS011;6909;52.202;9.876;2023-02-28T13:08:52;1.57;;;0.70;;
13672;SDS011;6909;52.202;9.876;2023-02-28T13:11:39;0.63;;;0.63;;
13672;SDS011;6909;52.202;9.876;2023-02-28T13:14:16;1.20;;;0.70;;
13672;SDS011;6909;52.202;9.876;2023-02-28T13:16:51;1.27;;;0.87;;
13672;SDS011;6909;52.202;9.876;2023-02-28T13:19:25;0.40;;;0.40;;
13672;SDS011;6909;52.202;9.876;2023-02-28T13:21:54;2.67;;;1.17;;
13672;SDS011;6909;52.202;9.876;2023-02-28T13:24:39;1.07;;;0.70;;
13672;SDS011;6909;52.202;9.876;2023-02-28T13:33:22;0.60;;;0.60;;
13672;SDS011;6909;52.202;9.876;2023-02-28T13:36:00;0.60;;;0.60;;
13672;SDS011;6909;52.202;9.876;2023-02-28T13:38:59;0.63;;;0.50;;
13672;SDS011;6909;52.202;9.876;2023-02-28T13:41:44;1.13;;;0.63;;
13672;SDS011;6909;52.202;9.876;2023-02-28T13:44:15;1.43;;;0.67;;
13672;SDS011;6909;52.202;9.876;2023-02-28T13:49:49;1.80;;;0.70;;
13672;SDS011;6909;52.202;9.876;2023-02-28T13:52:18;1.30;;;0.90;;
13672;SDS011;6909;52.202;9.876;2023-02-28T13:54:55;0.80;;;0.70;;
13672;SDS011;6909;52.202;9.876;2023-02-28T13:57:47;1.17;;;0.83;;
13672;SDS011;6909;52.202;9.876;2023-02-28T14:00:37;0.90;;;0.80;;
13672;SDS011;6909;52.202;9.876;2023-02-28T14:03:21;1.30;;;0.90;;
13672;SDS011;6909;52.202;9.876;2023-02-28T14:06:14;0.67;;;0.63;;
13672;SDS011;6909;52.202;9.876;2023-02-28T14:08:52;2.10;;;1.07;;
13672;SDS011;6909;52.202;9.876;2023-02-28T14:11:24;0.50;;;0.50;;
13672;SDS011;6909;52.202;9.876;2023-02-28T14:13:58;1.30;;;0.80;;
13672;SDS011;6909;52.202;9.876;2023-02-28T14:16:27;0.53;;;0.47;;
13672;SDS011;6909;52.202;9.876;2023-02-28T14:19:09;1.30;;;0.80;;
13672;SDS011;6909;52.202;9.876;2023-02-28T14:21:39;1.50;;;1.00;;
13672;SDS011;6909;52.202;9.876;2023-02-28T14:24:24;0.83;;;0.70;;
13672;SDS011;6909;52.202;9.876;2023-02-28T14:27:28;1.20;;;0.60;;
13672;SDS011;6909;52.202;9.876;2023-02-28T14:30:14;1.03;;;0.90;;
13672;SDS011;6909;52.202;9.876;2023-02-28T14:33:04;0.50;;;0.50;;
13672;SDS011;6909;52.202;9.876;2023-02-28T14:35:46;1.07;;;0.67;;
13672;SDS011;6909;52.202;9.876;2023-02-28T14:38:24;0.50;;;0.50;;
13672;SDS011;6909;52.202;9.876;2023-02-28T14:40:54;0.73;;;0.70;;
13672;SDS011;6909;52.202;9.876;2023-02-28T14:43:25;0.87;;;0.77;;
13672;SDS011;6909;52.202;9.876;2023-02-28T14:45:53;1.50;;;1.03;;
13672;SDS011;6909;52.202;9.876;2023-02-28T14:48:24;0.63;;;0.63;;
13672;SDS011;6909;52.202;9.876;2023-02-28T14:50:53;1.33;;;1.03;;
13672;SDS011;6909;52.202;9.876;2023-02-28T14:53:22;1.73;;;0.47;;
13672;SDS011;6909;52.202;9.876;2023-02-28T14:55:51;0.90;;;0.80;;
13672;SDS011;6909;52.202;9.876;2023-02-28T14:58:23;1.23;;;0.67;;
13672;SDS011;6909;52.202;9.876;2023-02-28T15:00:52;0.60;;;0.60;;
13672;SDS011;6909;52.202;9.876;2023-02-28T15:03:21;1.23;;;0.83;;
13672;SDS011;6909;52.202;9.876;2023-02-28T15:05:54;1.07;;;0.97;;
13672;SDS011;6909;52.202;9.876;2023-02-28T15:08:22;0.93;;;0.60;;
13672;SDS011;6909;52.202;9.876;2023-02-28T15:10:51;0.53;;;0.50;;
13672;SDS011;6909;52.202;9.876;2023-02-28T15:13:21;0.80;;;0.67;;
13672;SDS011;6909;52.202;9.876;2023-02-28T15:15:50;0.93;;;0.70;;
13672;SDS011;6909;52.202;9.876;2023-02-28T15:18:22;3.00;;;1.07;;
13672;SDS011;6909;52.202;9.876;2023-02-28T15:20:56;2.63;;;0.80;;
13672;SDS011;6909;52.202;9.876;2023-02-28T15:23:24;1.17;;;0.63;;
13672;SDS011;6909;52.202;9.876;2023-02-28T15:25:51;1.17;;;0.80;;
13672;SDS011;6909;52.202;9.876;2023-02-28T15:28:20;0.60;;;0.43;;
13672;SDS011;6909;52.202;9.876;2023-02-28T15:30:52;1.30;;;1.00;;
13672;SDS011;6909;52.202;9.876;2023-02-28T15:33:22;0.70;;;0.70;;
13672;SDS011;6909;52.202;9.876;2023-02-28T15:35:51;1.23;;;0.83;;
13672;SDS011;6909;52.202;9.876;2023-02-28T15:38:32;0.90;;;0.90;;
13672;SDS011;6909;52.202;9.876;2023-02-28T15:41:00;0.60;;;0.47;;